createdAt,value
2022-07-26T00:00:54.235Z,1.80
2022-07-26T00:05:56.477Z,1.17
2022-07-26T00:10:58.776Z,1.77
2022-07-26T00:16:01.039Z,1.35
2022-07-26T00:21:03.419Z,1.95
2022-07-26T00:26:05.478Z,1.20
2022-07-26T00:31:07.877Z,1.42
2022-07-26T00:36:10.058Z,2.00
2022-07-26T00:41:12.162Z,1.65
2022-07-26T00:46:14.323Z,1.75
2022-07-26T00:51:16.562Z,1.83
2022-07-26T00:56:18.866Z,1.83
2022-07-26T01:01:20.999Z,1.83
2022-07-26T01:06:27.137Z,2.00
2022-07-26T01:11:29.497Z,1.50
2022-07-26T01:16:31.827Z,1.83
2022-07-26T01:21:33.983Z,2.03
2022-07-26T01:26:36.147Z,1.73
2022-07-26T01:31:38.406Z,1.92
2022-07-26T01:36:40.523Z,2.63
2022-07-26T01:41:42.592Z,2.38
2022-07-26T01:46:44.706Z,2.10
2022-07-26T01:51:46.934Z,2.17
2022-07-26T01:56:49.233Z,2.28
2022-07-26T02:01:52.035Z,2.40
2022-07-26T02:06:54.284Z,2.47
2022-07-26T02:11:56.362Z,2.10
2022-07-26T02:17:00.207Z,2.42
2022-07-26T02:22:02.492Z,2.30
2022-07-26T02:27:04.781Z,2.50
2022-07-26T02:32:07.094Z,2.85
2022-07-26T02:37:09.185Z,2.50
2022-07-26T02:42:11.278Z,2.47
2022-07-26T02:47:13.329Z,2.53
2022-07-26T02:52:15.408Z,2.80
2022-07-26T02:57:17.577Z,2.25
2022-07-26T03:02:19.654Z,2.25
2022-07-26T03:07:21.706Z,2.42
2022-07-26T03:12:24.240Z,2.50
2022-07-26T03:17:26.328Z,2.70
2022-07-26T03:22:28.443Z,2.13
2022-07-26T03:27:30.551Z,2.22
2022-07-26T03:32:32.654Z,2.58
2022-07-26T03:37:44.800Z,2.42
2022-07-26T03:42:48.507Z,1.95
2022-07-26T03:47:50.552Z,2.25
2022-07-26T03:52:52.661Z,2.33
2022-07-26T03:57:54.654Z,4.00
2022-07-26T04:02:56.744Z,2.83
2022-07-26T04:07:58.783Z,2.92
2022-07-26T04:13:01.363Z,1.77
2022-07-26T04:18:03.543Z,2.22
2022-07-26T04:23:10.719Z,2.28
2022-07-26T04:28:14.537Z,2.22
2022-07-26T04:33:16.574Z,2.38
2022-07-26T04:38:18.750Z,2.00
2022-07-26T04:43:20.945Z,2.85
2022-07-26T04:48:23.368Z,1.88
2022-07-26T04:53:25.412Z,2.20
2022-07-26T04:58:27.586Z,2.67
2022-07-26T05:03:29.575Z,2.28
2022-07-26T05:08:31.656Z,2.10
2022-07-26T05:13:33.685Z,2.00
2022-07-26T05:18:43.914Z,2.50
2022-07-26T05:23:50.696Z,2.40
2022-07-26T05:28:52.909Z,1.92
2022-07-26T05:33:55.299Z,2.38
2022-07-26T05:38:57.362Z,2.28
2022-07-26T05:43:59.456Z,2.33
2022-07-26T05:49:01.735Z,2.53
2022-07-26T05:54:04.144Z,2.45
2022-07-26T05:59:06.273Z,3.00
2022-07-26T06:04:09.406Z,2.22
2022-07-26T06:09:11.995Z,2.30
2022-07-26T06:14:14.564Z,2.50
2022-07-26T06:19:16.945Z,2.13
2022-07-26T06:24:18.973Z,2.35
2022-07-26T06:29:21.737Z,2.03
2022-07-26T06:34:24.323Z,1.90
2022-07-26T06:39:26.558Z,1.90
2022-07-26T06:44:28.598Z,1.98
2022-07-26T06:49:30.700Z,2.58
2022-07-26T06:54:32.764Z,1.65
2022-07-26T06:59:34.925Z,1.67
2022-07-26T07:04:37.048Z,1.63
2022-07-26T07:09:39.461Z,1.20
2022-07-26T07:14:41.851Z,2.20
2022-07-26T07:19:43.926Z,2.45
2022-07-26T07:24:46.603Z,2.55
2022-07-26T07:29:48.939Z,2.00
2022-07-26T07:34:50.995Z,0.75
2022-07-26T07:39:53.098Z,0.70
2022-07-26T07:44:56.312Z,0.73
2022-07-26T07:49:58.325Z,0.80
2022-07-26T07:55:21.852Z,0.80
2022-07-26T08:00:27.491Z,0.88
2022-07-26T08:05:29.682Z,1.00
2022-07-26T08:10:31.928Z,1.23
2022-07-26T08:15:34.055Z,1.30
2022-07-26T08:20:36.088Z,1.00
2022-07-26T08:25:50.073Z,1.10
2022-07-26T08:30:59.294Z,0.90
2022-07-26T08:36:01.693Z,0.80
2022-07-26T08:41:03.845Z,1.25
2022-07-26T08:46:06.041Z,1.30
2022-07-26T08:51:11.004Z,1.50
2022-07-26T08:56:13.894Z,1.48
2022-07-26T09:01:16.046Z,1.35
2022-07-26T09:06:20.655Z,1.20
2022-07-26T09:11:30.259Z,0.90
2022-07-26T09:16:37.265Z,0.80
2022-07-26T09:21:40.249Z,0.77
2022-07-26T09:26:55.223Z,0.80
2022-07-26T09:32:18.868Z,0.88
2022-07-26T09:37:38.045Z,0.95
2022-07-26T09:43:06.557Z,0.70
2022-07-26T09:53:14.168Z,1.00
2022-07-26T09:58:17.558Z,0.90
2022-07-26T10:03:19.926Z,0.60
2022-07-26T10:08:22.183Z,0.60
2022-07-26T10:13:27.193Z,0.77
2022-07-26T10:18:39.001Z,1.00
2022-07-26T10:24:01.591Z,1.30
2022-07-26T10:29:16.029Z,0.90
2022-07-26T10:34:58.879Z,0.80
2022-07-26T10:40:19.254Z,1.02
2022-07-26T10:45:22.811Z,0.85
2022-07-26T10:50:33.427Z,0.70
2022-07-26T10:55:51.512Z,0.73
2022-07-26T11:01:03.312Z,0.80
2022-07-26T11:06:27.718Z,0.90
2022-07-26T11:11:31.724Z,1.63
2022-07-26T11:16:45.291Z,1.20
2022-07-26T11:21:54.162Z,1.23
2022-07-26T11:26:57.220Z,0.77
2022-07-26T11:32:18.823Z,1.40
2022-07-26T11:37:21.194Z,0.93
2022-07-26T11:42:26.071Z,0.80
2022-07-26T11:47:28.231Z,0.50
2022-07-26T11:52:33.331Z,0.70
2022-07-26T11:57:35.792Z,0.50
2022-07-26T12:02:42.531Z,0.70
2022-07-26T12:08:04.732Z,1.10
2022-07-26T12:13:15.464Z,1.15
2022-07-26T12:18:28.047Z,1.30
2022-07-26T12:23:48.282Z,0.80
2022-07-26T12:28:50.933Z,1.00
2022-07-26T12:33:53.345Z,0.70
2022-07-26T12:38:56.809Z,1.00
2022-07-26T12:43:59.734Z,0.85
2022-07-26T12:49:05.675Z,0.90
2022-07-26T12:54:08.878Z,0.82
2022-07-26T12:59:12.395Z,0.70
2022-07-26T13:04:20.247Z,0.80
2022-07-26T13:09:22.464Z,1.08
2022-07-26T13:14:24.623Z,0.57
2022-07-26T13:19:27.365Z,0.80
2022-07-26T13:24:32.631Z,0.88
2022-07-26T13:29:36.480Z,0.60
2022-07-26T13:34:40.972Z,0.93
2022-07-26T13:39:44.438Z,0.88
2022-07-26T13:44:46.651Z,1.10
2022-07-26T13:49:49.117Z,0.80
2022-07-26T13:54:51.229Z,0.82
2022-07-26T13:59:53.339Z,0.88
2022-07-26T14:04:55.388Z,0.63
2022-07-26T14:09:57.395Z,0.93
2022-07-26T14:14:59.499Z,0.73
2022-07-26T14:20:02.147Z,0.93
2022-07-26T14:25:05.968Z,0.88
2022-07-26T14:30:08.487Z,0.77
2022-07-26T14:35:10.679Z,0.65
2022-07-26T14:40:15.143Z,1.20
2022-07-26T14:45:17.440Z,0.70
2022-07-26T14:50:19.533Z,1.10
2022-07-26T15:00:41.476Z,0.90
2022-07-26T15:05:43.577Z,0.90
2022-07-26T15:10:45.863Z,0.70
2022-07-26T15:15:47.934Z,0.80
2022-07-26T15:20:50.445Z,0.82
2022-07-26T15:25:52.604Z,0.75
2022-07-26T15:30:54.917Z,0.65
2022-07-26T15:35:57.220Z,0.82
2022-07-26T15:40:59.386Z,1.00
2022-07-26T15:46:01.538Z,0.65
2022-07-26T15:51:05.568Z,1.25
2022-07-26T15:56:08.302Z,0.90
2022-07-26T16:01:10.534Z,0.90
2022-07-26T16:06:12.616Z,0.68
2022-07-26T16:11:14.760Z,1.08
2022-07-26T16:16:16.914Z,0.68
2022-07-26T16:21:19.233Z,0.80
2022-07-26T16:26:21.227Z,0.88
2022-07-26T16:31:23.280Z,2.10
2022-07-26T16:36:25.891Z,0.65
2022-07-26T16:41:29.029Z,0.68
2022-07-26T16:46:31.397Z,0.63
2022-07-26T16:51:33.557Z,0.60
2022-07-26T16:56:35.873Z,0.50
2022-07-26T17:01:38.074Z,0.70
2022-07-26T17:06:40.183Z,1.27
2022-07-26T17:11:42.447Z,1.20
2022-07-26T17:16:44.668Z,0.90
2022-07-26T17:21:46.839Z,1.17
2022-07-26T17:26:48.951Z,0.65
2022-07-26T17:31:51.097Z,1.15
2022-07-26T17:37:01.082Z,2.33
2022-07-26T17:42:03.155Z,0.73
2022-07-26T17:47:05.400Z,1.00
2022-07-26T17:52:27.258Z,0.95
2022-07-26T17:57:29.675Z,0.98
2022-07-26T18:02:31.716Z,0.50
2022-07-26T18:07:33.779Z,0.80
2022-07-26T18:12:35.876Z,0.90
2022-07-26T18:17:38.081Z,1.40
2022-07-26T18:22:40.151Z,1.80
2022-07-26T18:27:43.202Z,0.82
2022-07-26T18:32:45.321Z,0.80
2022-07-26T18:37:47.532Z,1.23
2022-07-26T18:42:49.538Z,0.75
2022-07-26T18:47:51.669Z,1.10
2022-07-26T18:52:55.822Z,0.80
2022-07-26T18:57:59.995Z,1.10
2022-07-26T19:03:05.741Z,0.82
2022-07-26T19:08:09.267Z,1.00
2022-07-26T19:13:11.316Z,1.02
2022-07-26T19:18:16.048Z,0.60
2022-07-26T19:23:18.117Z,0.90
2022-07-26T19:28:20.283Z,0.63
2022-07-26T19:33:22.643Z,0.90
2022-07-26T19:38:24.961Z,1.02
2022-07-26T19:43:27.794Z,0.80
2022-07-26T19:48:29.919Z,0.60
2022-07-26T19:53:34.444Z,0.68
2022-07-26T19:58:36.645Z,0.85
2022-07-26T20:03:38.890Z,0.73
2022-07-26T20:08:41.439Z,0.70
2022-07-26T20:13:43.741Z,0.90
2022-07-26T20:18:45.773Z,0.90
2022-07-26T20:23:47.985Z,0.63
2022-07-26T20:28:50.889Z,0.80
2022-07-26T20:33:53.107Z,0.70
2022-07-26T20:38:55.347Z,1.00
2022-07-26T20:43:57.520Z,0.90
2022-07-26T20:48:59.709Z,0.63
2022-07-26T20:54:01.850Z,0.80
2022-07-26T20:59:04.573Z,0.63
2022-07-26T21:04:06.648Z,1.00
2022-07-26T21:09:09.942Z,0.90
2022-07-26T21:14:12.427Z,0.93
2022-07-26T21:19:14.862Z,1.02
2022-07-26T21:24:17.342Z,0.93
2022-07-26T21:29:19.340Z,0.70
2022-07-26T21:34:21.466Z,0.75
2022-07-26T21:39:23.526Z,0.95
2022-07-26T21:44:26.704Z,0.50
2022-07-26T21:49:28.784Z,1.00
2022-07-26T21:54:30.858Z,0.80
2022-07-26T21:59:32.964Z,0.85
2022-07-26T22:04:34.969Z,0.80
2022-07-26T22:09:37.034Z,0.70
2022-07-26T22:14:39.131Z,0.50
2022-07-26T22:19:41.297Z,0.70
2022-07-26T22:24:43.343Z,0.70
2022-07-26T22:29:45.349Z,0.80
2022-07-26T22:34:47.399Z,0.90
2022-07-26T22:39:49.660Z,0.70
2022-07-26T22:44:51.779Z,0.60
2022-07-26T22:49:53.881Z,0.95
2022-07-26T22:54:56.020Z,0.75
2022-07-26T22:59:58.105Z,0.75
2022-07-26T23:05:00.117Z,0.80
2022-07-26T23:10:05.699Z,0.70
2022-07-26T23:15:08.339Z,0.57
2022-07-26T23:20:12.181Z,0.98
2022-07-26T23:25:14.180Z,0.60
2022-07-26T23:30:16.336Z,0.70
2022-07-26T23:35:18.590Z,0.60
2022-07-26T23:40:21.508Z,1.25
2022-07-26T23:45:23.733Z,0.65
2022-07-26T23:50:25.794Z,0.95
2022-07-26T23:55:28.662Z,0.70
